Time;durP1;ratioP1;P1;durP2;ratioP2;P2;SDS_P1;SDS_P2;PMS_P1;PMS_P2;Temp;Humidity;BMP_temperature;BMP_pressure;BME280_temperature;BME280_humidity;BME280_pressure;Samples;Min_cycle;Max_cycle;Signal;HPM_P1;HPM_P2
2021/03/14 00:00:58;;;;;;;15.03;5.10;;;;;;;5.36;62.33;98682.55;2165490;81;27590;-63
2021/03/14 00:04:00;;;;;;;10.70;4.65;;;;;;;5.35;62.34;98690.13;2139357;81;29852;-64
2021/03/14 00:07:02;;;;;;;7.35;3.37;;;;;;;5.33;62.37;98687.08;2168628;81;32707;-65
2021/03/14 00:10:06;;;;;;;7.80;4.53;;;;;;;5.31;62.42;98678.34;2174156;81;33107;-62
2021/03/14 00:13:09;;;;;;;10.40;4.35;;;;;;;5.30;62.42;98679.28;2170726;81;29167;-64
2021/03/14 00:16:12;;;;;;;10.40;4.58;;;;;;;5.30;62.50;98675.78;2127961;83;27668;-65
2021/03/14 00:19:14;;;;;;;21.87;13.28;;;;;;;5.28;62.53;98673.22;2159406;81;28828;-62
2021/03/14 00:22:16;;;;;;;16.25;8.28;;;;;;;5.27;62.51;98659.55;2173340;81;31291;-62
2021/03/14 00:25:18;;;;;;;14.25;6.90;;;;;;;5.27;62.54;98668.84;2157797;81;33554;-65
2021/03/14 00:28:20;;;;;;;13.15;5.90;;;;;;;5.27;62.63;98672.83;2175346;81;29311;-65
2021/03/14 00:31:22;;;;;;;12.43;4.92;;;;;;;5.25;62.64;98661.88;2166125;81;27586;-64
2021/03/14 00:34:25;;;;;;;9.70;4.33;;;;;;;5.24;62.64;98666.80;2154844;82;28897;-64
2021/03/14 00:37:27;;;;;;;8.80;4.37;;;;;;;5.24;62.67;98667.68;2143832;82;30564;-64
2021/03/14 00:40:29;;;;;;;9.00;4.10;;;;;;;5.23;62.67;98663.77;2152666;81;35463;-64
2021/03/14 00:43:32;;;;;;;7.90;4.30;;;;;;;5.20;62.67;98662.14;2138127;82;30363;-63
2021/03/14 00:46:35;;;;;;;8.90;3.98;;;;;;;5.19;62.75;98656.93;2136893;82;27817;-64
2021/03/14 00:49:37;;;;;;;10.23;3.80;;;;;;;5.16;62.77;98653.49;2142398;82;28898;-62
2021/03/14 00:52:39;;;;;;;10.25;5.83;;;;;;;5.15;62.77;98652.23;2130258;82;31182;-64
2021/03/14 00:55:41;;;;;;;6.55;3.20;;;;;;;5.14;62.99;98659.80;2139520;81;35634;-63
2021/03/14 00:58:43;;;;;;;7.67;3.30;;;;;;;5.12;62.92;98657.25;2113739;84;29178;-65
2021/03/14 01:01:46;;;;;;;12.20;4.15;;;;;;;5.11;62.99;98658.67;2132930;82;27712;-63
2021/03/14 01:04:48;;;;;;;7.40;2.83;;;;;;;5.11;62.99;98662.16;2150541;81;30178;-62
2021/03/14 01:07:50;;;;;;;5.85;3.20;;;;;;;5.12;63.01;98653.27;2112395;84;32583;-64
2021/03/14 01:10:52;;;;;;;9.98;3.20;;;;;;;5.16;63.00;98649.97;2150674;81;35445;-66
2021/03/14 01:13:54;;;;;;;10.65;3.52;;;;;;;5.20;62.98;98650.68;2178680;81;29229;-63
2021/03/14 01:16:57;;;;;;;11.75;4.15;;;;;;;5.22;62.96;98644.79;2159007;81;27720;-62
2021/03/14 01:19:58;;;;;;;9.73;4.22;;;;;;;5.25;62.95;98647.28;2167341;81;29894;-66
2021/03/14 01:23:01;;;;;;;7.75;4.08;;;;;;;5.25;62.96;98646.83;2188037;81;31569;-64
2021/03/14 01:26:03;;;;;;;7.47;3.52;;;;;;;5.25;62.97;98644.17;2183384;81;34078;-65
2021/03/14 01:29:05;;;;;;;10.80;3.90;;;;;;;5.25;62.99;98659.23;2171008;81;29873;-64
2021/03/14 01:32:07;;;;;;;8.48;4.70;;;;;;;5.27;62.99;98658.23;2144167;81;27666;-65
2021/03/14 01:35:11;;;;;;;10.45;3.50;;;;;;;5.26;62.92;98669.78;2164308;82;28749;-65
2021/03/14 01:38:13;;;;;;;12.90;5.20;;;;;;;5.24;62.92;98667.68;2157169;82;31218;-63
2021/03/14 01:41:15;;;;;;;6.75;3.50;;;;;;;5.24;62.99;98666.80;2171517;82;33130;-63
2021/03/14 01:44:17;;;;;;;5.45;3.08;;;;;;;5.22;63.03;98670.01;2161369;82;29161;-65
2021/03/14 01:47:28;;;;;;;7.37;3.95;;;;;;;5.21;63.02;98665.67;2159679;82;28291;-64
2021/03/14 01:50:31;;;;;;;9.98;3.80;;;;;;;5.19;63.08;98664.41;2139031;82;29802;-66
2021/03/14 01:53:34;;;;;;;8.43;5.05;;;;;;;5.19;63.18;98674.19;2153029;82;32234;-63
2021/03/14 01:56:36;;;;;;;13.30;6.65;;;;;;;5.19;63.30;98670.20;2171772;82;33134;-65
2021/03/14 01:59:40;;;;;;;21.52;11.50;;;;;;;5.17;63.31;98671.14;2147914;82;29233;-66
2021/03/14 02:02:42;;;;;;;16.20;7.58;;;;;;;5.19;63.40;98659.58;2162668;82;27726;-66
2021/03/14 02:05:44;;;;;;;10.20;4.80;;;;;;;5.19;63.32;98656.93;2150457;82;28904;-64
2021/03/14 02:08:46;;;;;;;10.10;4.65;;;;;;;5.17;63.38;98662.30;2156062;82;31157;-67
2021/03/14 02:11:49;;;;;;;9.15;4.95;;;;;;;5.16;63.39;98664.11;2168912;82;35494;-64
2021/03/14 02:14:55;;;;;;;6.60;3.70;;;;;;;5.16;63.44;98672.08;2137050;82;30508;-65
2021/03/14 02:17:58;;;;;;;9.00;4.08;;;;;;;5.14;63.52;98670.42;2150758;82;28194;-64
2021/03/14 02:21:00;;;;;;;6.35;4.40;;;;;;;5.13;63.53;98676.70;2139071;82;28893;-65
2021/03/14 02:24:15;;;;;;;4.62;3.25;;;;;;;5.12;63.50;98666.53;2168858;82;32134;-66
2021/03/14 02:27:17;;;;;;;3.58;2.33;;;;;;;5.11;63.63;98661.33;2144190;82;33945;-63
2021/03/14 02:33:33;;;;;;;5.92;3.10;;;;;;;5.10;63.60;98670.23;2134502;83;27647;-67
2021/03/14 02:36:37;;;;;;;5.40;3.10;;;;;;;5.12;63.57;98667.86;2134667;83;28833;-59
2021/03/14 02:39:40;;;;;;;4.90;2.80;;;;;;;5.12;63.52;98668.35;2129287;83;34968;-60
2021/03/14 02:42:43;;;;;;;5.60;3.40;;;;;;;5.13;63.51;98674.89;2120085;83;32740;-61
2021/03/14 02:45:46;;;;;;;7.20;3.45;;;;;;;5.14;63.48;98678.39;2133252;83;29209;-62
2021/03/14 02:48:48;;;;;;;6.65;3.20;;;;;;;5.12;63.44;98679.81;2134220;83;27633;-67
2021/03/14 02:51:50;;;;;;;7.37;3.05;;;;;;;5.13;63.50;98675.37;2096232;83;28914;-67
2021/03/14 02:54:52;;;;;;;7.40;3.08;;;;;;;5.11;63.47;98680.75;2125966;83;30943;-65
2021/03/14 02:57:55;;;;;;;7.05;2.90;;;;;;;5.10;63.47;98688.80;2134544;83;33161;-66
2021/03/14 03:00:57;;;;;;;6.45;2.98;;;;;;;5.10;63.49;98687.48;2133418;83;29194;-66
2021/03/14 03:04:01;;;;;;;5.33;2.90;;;;;;;5.07;63.48;98689.80;2133303;83;27604;-61
2021/03/14 03:07:04;;;;;;;4.17;2.55;;;;;;;5.05;63.42;98690.35;2123307;83;28828;-60
2021/03/14 03:10:08;;;;;;;6.78;2.90;;;;;;;5.02;63.51;98697.17;2123392;83;31611;-60
2021/03/14 03:13:11;;;;;;;4.10;2.22;;;;;;;4.99;63.59;98692.02;2110766;83;33225;-62
2021/03/14 03:16:16;;;;;;;6.35;2.70;;;;;;;4.96;63.64;98694.38;2102541;84;29597;-60
2021/03/14 03:19:20;;;;;;;6.50;2.62;;;;;;;4.95;63.69;98695.31;2122206;83;27758;-65
2021/03/14 03:22:22;;;;;;;4.83;2.62;;;;;;;4.94;63.69;98700.23;2132142;83;29589;-63
2021/03/14 03:25:24;;;;;;;5.72;3.02;;;;;;;4.95;63.68;98697.09;2107406;84;31141;-66
2021/03/14 03:28:27;;;;;;;6.75;2.70;;;;;;;4.93;63.72;98702.50;2070802;85;33538;-65
2021/03/14 03:31:29;;;;;;;6.90;2.33;;;;;;;4.92;63.72;98700.78;2126554;82;29145;-60
2021/03/14 03:34:31;;;;;;;3.70;2.47;;;;;;;4.93;63.65;98697.64;2094991;83;27618;-67
2021/03/14 03:37:33;;;;;;;6.97;2.65;;;;;;;4.90;63.65;98694.69;2098249;83;28837;-63
2021/03/14 03:40:36;;;;;;;6.60;2.62;;;;;;;4.90;63.62;98697.34;2129387;83;30343;-62
2021/03/14 03:43:38;;;;;;;5.47;2.30;;;;;;;4.89;63.64;98700.06;2155201;82;33116;-67
2021/03/14 03:46:42;;;;;;;4.95;2.77;;;;;;;4.89;63.60;98695.63;2103813;83;29599;-67
2021/03/14 03:49:46;;;;;;;4.55;2.85;;;;;;;4.91;63.59;98692.42;2115204;83;27686;-65
2021/03/14 03:52:51;;;;;;;10.48;4.20;;;;;;;4.94;63.56;98695.38;2095967;84;31070;-67
2021/03/14 03:55:53;;;;;;;7.47;3.33;;;;;;;4.96;63.42;98689.52;2053414;85;31670;-59
2021/03/14 03:58:56;;;;;;;7.30;3.75;;;;;;;4.98;63.48;98688.98;2130634;83;33195;-61
2021/03/14 04:01:59;;;;;;;7.35;3.33;;;;;;;4.99;63.46;98685.39;2132850;83;29914;-63
2021/03/14 04:05:07;;;;;;;7.20;3.12;;;;;;;4.99;63.44;98672.13;2145717;82;27660;-60
2021/03/14 04:08:10;;;;;;;6.67;3.12;;;;;;;4.98;63.39;98673.90;2108985;83;28885;-58
2021/03/14 04:11:15;;;;;;;6.22;3.40;;;;;;;4.97;63.33;98673.99;2130170;83;31152;-61
2021/03/14 04:14:18;;;;;;;8.23;3.58;;;;;;;4.93;63.33;98674.63;2131728;83;33113;-61
2021/03/14 04:17:21;;;;;;;6.85;3.05;;;;;;;4.93;63.32;98677.73;2127499;83;29160;-58
2021/03/14 04:20:30;;;;;;;8.13;3.00;;;;;;;4.91;63.33;98692.88;2126922;83;27758;-67
2021/03/14 04:23:34;;;;;;;6.65;2.75;;;;;;;4.89;63.27;98696.08;2128239;83;31158;-67
2021/03/14 04:26:42;;;;;;;5.25;2.80;;;;;;;4.87;63.27;98704.13;2130926;83;32061;-59
2021/03/14 04:29:48;;;;;;;7.10;3.22;;;;;;;4.82;63.34;98708.36;2131978;83;33177;-59
2021/03/14 04:32:53;;;;;;;5.22;2.40;;;;;;;4.79;63.32;98702.36;2133291;82;29165;-66
2021/03/14 04:35:58;;;;;;;5.17;2.53;;;;;;;4.75;63.73;98694.16;2132772;83;27720;-63
2021/03/14 04:39:01;;;;;;;6.05;2.85;;;;;;;4.74;63.96;98693.29;2139101;81;28837;-57
2021/03/14 04:42:03;;;;;;;6.62;2.47;;;;;;;4.71;63.70;98683.70;2141514;81;32577;-65
2021/03/14 04:45:08;;;;;;;4.35;2.50;;;;;;;4.71;63.75;98679.73;2106842;84;35414;-63
2021/03/14 04:48:10;;;;;;;6.65;2.60;;;;;;;4.72;63.92;98685.88;2104516;83;29176;-61
2021/03/14 04:51:13;;;;;;;8.18;3.20;;;;;;;4.70;63.83;98678.01;2139743;83;27733;-58
2021/03/14 04:54:16;;;;;;;9.65;3.52;;;;;;;4.69;63.73;98672.80;2136352;83;29123;-58
2021/03/14 04:57:20;;;;;;;9.88;3.40;;;;;;;4.67;63.67;98680.81;2134807;83;31237;-62
2021/03/14 05:00:24;;;;;;;8.85;3.75;;;;;;;4.64;63.69;98683.62;2134284;81;32933;-58
2021/03/14 05:03:33;;;;;;;8.58;3.80;;;;;;;4.61;63.75;98688.23;2132396;83;30098;-58
2021/03/14 05:06:38;;;;;;;9.13;4.12;;;;;;;4.56;63.78;98682.69;2135816;83;27233;-67
2021/03/14 05:09:42;;;;;;;8.48;3.60;;;;;;;4.53;63.89;98698.78;2054823;86;28853;-60
2021/03/14 05:12:46;;;;;;;6.33;2.95;;;;;;;4.49;64.04;98696.34;2055315;85;31247;-59
2021/03/14 05:15:54;;;;;;;6.87;2.98;;;;;;;4.44;64.03;98690.43;2033525;87;34043;-60
2021/03/14 05:19:02;;;;;;;6.47;3.10;;;;;;;4.42;64.01;98698.44;2031832;86;44274;-62
2021/03/14 05:22:05;;;;;;;5.33;3.25;;;;;;;4.40;64.09;98700.31;2048613;86;27675;-64
2021/03/14 05:25:14;;;;;;;8.50;3.60;;;;;;;4.35;64.08;98707.66;2050602;86;29539;-64
2021/03/14 05:28:19;;;;;;;9.15;3.42;;;;;;;4.31;64.22;98718.86;2057657;86;31154;-67
2021/03/14 05:31:34;;;;;;;4.97;2.67;;;;;;;4.28;64.26;98720.81;2034533;87;33119;-60
2021/03/14 05:34:36;;;;;;;5.50;2.50;;;;;;;4.25;64.43;98729.78;2039408;87;28570;-66
2021/03/14 05:37:38;;;;;;;10.53;3.75;;;;;;;4.23;64.37;98736.47;2039150;87;27769;-59
2021/03/14 05:40:43;;;;;;;7.60;2.80;;;;;;;4.21;64.51;98738.81;2035079;87;27774;-58
2021/03/14 05:47:02;;;;;;;9.80;3.07;;;;;;;4.24;64.68;98731.56;2230364;79;28180;-60
2021/03/14 05:50:11;;;;;;;8.35;3.17;;;;;;;4.23;64.78;98742.25;2208266;79;27739;-60
2021/03/14 05:53:16;;;;;;;9.23;3.52;;;;;;;4.28;64.86;98733.62;2228775;79;28696;-65
2021/03/14 05:56:21;;;;;;;11.88;4.58;;;;;;;4.34;64.90;98737.27;2227558;79;31107;-59
2021/03/14 05:59:22;;;;;;;18.98;6.47;;;;;;;4.39;64.88;98733.06;2228753;79;33104;-60
2021/03/14 06:02:26;;;;;;;21.62;7.80;;;;;;;4.42;64.82;98728.94;2214795;79;29588;-60
2021/03/14 06:05:30;;;;;;;13.75;6.25;;;;;;;4.46;64.75;98730.98;2232765;79;27577;-62
2021/03/14 06:08:33;;;;;;;13.15;6.60;;;;;;;4.49;64.78;98730.81;2228583;79;28885;-65
2021/03/14 06:11:35;;;;;;;11.00;4.45;;;;;;;4.52;64.75;98733.31;2228686;79;31225;-65
2021/03/14 06:14:38;;;;;;;12.53;4.92;;;;;;;4.59;64.75;98740.04;2228300;79;33125;-66
2021/03/14 06:17:41;;;;;;;8.18;4.08;;;;;;;4.68;64.79;98740.05;2220113;79;30411;-58
2021/03/14 06:20:44;;;;;;;8.43;3.30;;;;;;;4.83;64.75;98752.53;2179631;81;27661;-66
2021/03/14 06:24:07;;;;;;;9.78;4.30;;;;;;;5.06;64.67;98750.95;2213474;80;29267;-65
2021/03/14 06:27:09;;;;;;;9.63;3.83;;;;;;;5.38;64.51;98755.87;2217226;80;31148;-67
2021/03/14 06:30:15;;;;;;;10.75;3.62;;;;;;;5.78;64.28;98753.72;2217397;80;33127;-63
2021/03/14 06:33:18;;;;;;;;;;;;;;;6.11;64.03;98757.30;2189301;80;27684;-61
2021/03/14 06:36:21;;;;;;;12.65;5.28;;;;;;;6.45;63.63;98755.83;2201375;80;27500;-65
2021/03/14 06:39:27;;;;;;;10.25;4.40;;;;;;;6.76;63.15;98762.02;2179679;80;28811;-61
2021/03/14 06:42:33;;;;;;;8.33;4.40;;;;;;;7.07;62.71;98760.19;2178990;80;32169;-65
2021/03/14 06:45:40;;;;;;;7.10;3.90;;;;;;;7.39;62.25;98762.24;2176124;81;33268;-67
2021/03/14 06:48:42;;;;;;;8.23;4.33;;;;;;;7.71;62.02;98763.84;2179820;81;28154;-68
2021/03/14 06:51:52;;;;;;;6.45;3.72;;;;;;;8.03;61.42;98763.14;2176509;81;27658;-63
2021/03/14 06:54:54;;;;;;;11.55;4.33;;;;;;;8.32;60.87;98765.73;2150860;82;28869;-68
2021/03/14 06:57:57;;;;;;;9.18;4.00;;;;;;;8.61;60.54;98762.98;2178070;81;32061;-68
2021/03/14 07:01:13;;;;;;;8.43;4.35;;;;;;;8.88;59.90;98755.44;2163635;81;33887;-61
2021/03/14 07:04:39;;;;;;;7.85;3.02;;;;;;;9.24;59.51;98753.88;2251528;77;32277;-67
2021/03/14 07:07:42;;;;;;;10.13;3.02;;;;;;;9.47;58.58;98754.57;2167458;81;27794;-66
2021/03/14 07:10:45;;;;;;;4.75;2.40;;;;;;;9.72;58.40;98748.34;2179036;81;28835;-68
2021/03/14 07:13:53;;;;;;;5.22;2.98;;;;;;;9.94;57.63;98744.98;2178773;81;31081;-63
2021/03/14 07:16:58;;;;;;;7.45;3.05;;;;;;;10.16;56.38;98754.12;2198442;80;33874;-61
2021/03/14 07:20:15;;;;;;;6.78;2.47;;;;;;;10.33;56.13;98763.59;2193708;80;28527;-63
2021/03/14 07:23:17;;;;;;;4.37;2.60;;;;;;;10.45;54.50;98769.89;2211049;80;27753;-63
2021/03/14 07:26:45;;;;;;;6.08;3.15;;;;;;;10.52;54.38;98789.87;2206965;80;29793;-66
2021/03/14 07:29:49;;;;;;;5.67;2.67;;;;;;;10.71;54.92;98789.38;2217196;80;32053;-67
2021/03/14 07:32:52;;;;;;;4.70;2.25;;;;;;;10.87;53.60;98809.66;2217522;80;34088;-61
2021/03/14 07:35:55;;;;;;;6.25;1.90;;;;;;;10.89;51.84;98803.20;2208210;80;28897;-66
2021/03/14 07:39:01;;;;;;;6.67;2.40;;;;;;;10.87;52.44;98811.84;2178939;81;27683;-62
2021/03/14 07:42:04;;;;;;;8.13;3.30;;;;;;;10.89;52.48;98821.13;2178224;81;29867;-61
2021/03/14 07:45:09;;;;;;;3.75;1.60;;;;;;;10.99;52.25;98834.19;2178805;81;31009;-65
2021/03/14 07:48:12;;;;;;;4.08;1.70;;;;;;;11.08;51.58;98848.25;2190756;80;33988;-62
2021/03/14 07:51:14;;;;;;;6.28;3.33;;;;;;;11.01;51.37;98854.16;2197468;80;28846;-59
2021/03/14 07:54:51;;;;;;;6.92;3.10;;;;;;;10.84;49.73;98862.97;2150310;81;27945;-62
2021/03/14 07:57:53;;;;;;;4.35;2.30;;;;;;;10.59;49.93;98866.63;2178952;80;28839;-61
2021/03/14 08:00:56;;;;;;;4.15;2.22;;;;;;;10.38;51.06;98878.34;2178498;81;31336;-69
2021/03/14 08:03:59;;;;;;;4.20;2.10;;;;;;;10.30;50.79;98891.81;2201776;80;33175;-69
2021/03/14 08:07:02;;;;;;;9.13;2.27;;;;;;;10.24;49.25;98877.52;2217533;80;28883;-72
2021/03/14 08:10:09;;;;;;;5.15;1.32;;;;;;;10.09;50.21;98889.31;2202142;80;27657;-73
2021/03/14 08:13:17;;;;;;;2.95;1.45;;;;;;;9.99;49.32;98877.94;2196508;80;28808;-69
2021/03/14 08:16:20;;;;;;;7.92;2.10;;;;;;;9.85;49.88;98880.23;2188781;80;31205;-73
2021/03/14 08:19:24;;;;;;;2.90;1.55;;;;;;;9.79;50.28;98899.37;2194775;80;34012;-73
2021/03/14 08:22:45;;;;;;;4.83;1.47;;;;;;;9.76;49.73;98880.88;2153565;80;29791;-76
2021/03/14 08:25:50;;;;;;;4.53;2.00;;;;;;;9.70;49.85;98904.03;2204078;78;27760;-66
2021/03/14 08:29:13;;;;;;;6.05;2.30;;;;;;;9.64;49.98;98896.41;2184230;80;29812;-71
2021/03/14 08:32:22;;;;;;;3.70;1.75;;;;;;;9.56;49.00;98892.93;2207675;80;31126;-66
2021/03/14 08:35:50;;;;;;;5.10;1.80;;;;;;;9.43;49.75;98900.45;2136569;83;33078;-67
2021/03/14 08:38:54;;;;;;;3.25;1.72;;;;;;;9.37;49.70;98902.69;2136536;81;29017;-72
2021/03/14 08:42:05;;;;;;;4.40;1.72;;;;;;;9.39;49.84;98923.49;2100915;84;32666;-80
2021/03/14 08:45:27;;;;;;;2.80;1.30;;;;;;;9.35;49.11;98912.63;2102779;83;28934;-70
2021/03/14 08:48:29;;;;;;;8.28;2.55;;;;;;;9.33;48.62;98927.44;2102579;84;31151;-67
2021/03/14 08:51:34;;;;;;;5.70;2.52;;;;;;;9.38;49.61;98927.13;2102619;84;33657;-68
2021/03/14 08:54:48;;;;;;;2.80;1.62;;;;;;;9.46;49.73;98940.81;2067980;85;28875;-67
2021/03/14 08:58:15;;;;;;;3.02;1.50;;;;;;;9.54;49.35;98937.16;2326212;74;32685;-64
2021/03/14 09:01:18;;;;;;;4.95;2.27;;;;;;;9.59;49.02;98948.87;2300247;77;27734;-65
2021/03/14 09:04:31;;;;;;;4.47;1.77;;;;;;;9.59;48.17;98959.56;2284922;77;29759;-64
2021/03/14 09:07:34;;;;;;;13.22;4.10;;;;;;;9.55;48.89;98956.25;2264041;78;31374;-65
2021/03/14 09:10:36;;;;;;;11.70;4.37;;;;;;;9.55;49.04;98971.42;2293864;77;33087;-66
2021/03/14 09:13:38;;;;;;;7.60;3.10;;;;;;;9.52;48.88;98975.17;2296118;77;28598;-64
2021/03/14 09:16:44;;;;;;;5.97;2.08;;;;;;;9.51;49.06;98983.30;2287614;77;27749;-65
2021/03/14 09:19:55;;;;;;;4.47;2.27;;;;;;;9.52;48.29;98983.65;2285488;77;28820;-67
2021/03/14 09:23:01;;;;;;;6.05;1.90;;;;;;;9.46;48.53;98979.58;2266914;77;31082;-65
2021/03/14 09:26:03;;;;;;;3.75;2.02;;;;;;;9.49;48.93;98988.73;2278443;77;33288;-65
2021/03/14 09:29:05;;;;;;;6.37;2.87;;;;;;;9.51;49.01;98983.30;2281853;77;28859;-63
2021/03/14 09:32:24;;;;;;;4.58;2.30;;;;;;;9.57;49.42;98992.23;2280212;77;27753;-64
2021/03/14 09:35:35;;;;;;;7.55;2.12;;;;;;;9.60;49.11;98998.72;2281830;77;29175;-73
2021/03/14 09:38:37;;;;;;;6.50;2.33;;;;;;;9.55;49.14;98990.14;2271550;75;31191;-63
2021/03/14 09:41:47;;;;;;;5.83;2.10;;;;;;;9.53;49.07;98996.06;2276731;77;33089;-63
2021/03/14 09:45:06;;;;;;;3.95;2.30;;;;;;;9.47;48.78;99005.84;2268592;75;28746;-63
2021/03/14 09:48:12;;;;;;;4.12;2.50;;;;;;;9.49;48.87;98998.09;2290657;77;27681;-68
2021/03/14 09:51:17;;;;;;;7.03;2.30;;;;;;;9.61;49.07;99004.91;2285585;77;28806;-67
2021/03/14 09:54:19;;;;;;;5.92;1.52;;;;;;;9.77;49.30;98997.57;2273916;75;34756;-65
2021/03/14 09:57:21;;;;;;;7.25;2.30;;;;;;;9.92;48.72;99005.05;2275480;75;31911;-65
2021/03/14 10:00:29;;;;;;;9.48;2.85;;;;;;;10.06;49.02;98998.77;2282833;75;28859;-67
2021/03/14 10:03:33;;;;;;;7.25;3.10;;;;;;;10.19;48.67;98998.75;2282523;77;27667;-68
2021/03/14 10:06:38;;;;;;;8.58;3.77;;;;;;;10.39;48.49;98993.41;2295606;77;28795;-69
2021/03/14 10:09:41;;;;;;;7.20;2.35;;;;;;;10.63;48.66;98994.83;2297721;77;32432;-66
2021/03/14 10:12:43;;;;;;;3.27;1.82;;;;;;;10.82;48.34;98983.27;2271249;75;33103;-67
2021/03/14 10:15:52;;;;;;;4.80;2.47;;;;;;;10.93;46.57;98996.73;2278413;75;28850;-69
2021/03/14 10:18:58;;;;;;;5.40;3.17;;;;;;;10.83;47.25;98992.56;2279589;77;27747;-71
2021/03/14 10:22:00;;;;;;;2.70;1.95;;;;;;;10.71;46.98;98990.73;2290059;77;29253;-68
2021/03/14 10:25:03;;;;;;;8.48;2.10;;;;;;;10.59;47.07;98997.34;2275488;75;31123;-67
2021/03/14 10:28:17;;;;;;;2.47;1.70;;;;;;;10.45;47.21;98999.65;2282458;77;33121;-62
2021/03/14 10:31:20;;;;;;;3.60;1.82;;;;;;;10.37;47.56;99008.69;2281777;75;29993;-63
2021/03/14 10:34:24;;;;;;;3.92;2.05;;;;;;;10.43;47.76;99006.92;2282091;75;27702;-66
2021/03/14 10:37:33;;;;;;;6.20;3.72;;;;;;;10.55;47.52;99012.41;2276271;77;28804;-65
2021/03/14 10:40:35;;;;;;;2.75;1.92;;;;;;;10.70;48.07;99009.11;2273530;77;32540;-63
2021/03/14 10:43:53;;;;;;;4.85;2.90;;;;;;;10.79;47.88;99012.48;2274880;77;33186;-65
2021/03/14 10:46:56;;;;;;;8.95;2.80;;;;;;;10.89;48.12;99007.33;2280122;75;28869;-66
2021/03/14 10:50:11;;;;;;;6.37;2.85;;;;;;;10.98;47.88;99004.47;2279681;75;27642;-62
2021/03/14 10:53:16;;;;;;;6.58;3.77;;;;;;;10.96;47.72;99014.44;2295747;77;29708;-64
2021/03/14 10:56:19;;;;;;;5.70;2.95;;;;;;;11.10;48.27;99007.59;2279534;77;31121;-71
2021/03/14 10:59:32;;;;;;;6.85;3.42;;;;;;;11.23;48.26;99012.42;2276118;77;33454;-69
2021/03/14 11:02:48;;;;;;;5.90;3.47;;;;;;;11.34;47.98;98996.02;2277153;77;30235;-66
2021/03/14 11:05:47;;;;;;;4.12;3.72;;;;;;;11.31;47.08;99008.34;2268520;77;27929;-66
2021/03/14 11:09:15;;;;;;;3.95;2.83;;;;;;;11.22;47.73;99009.37;2268060;77;29222;-71
2021/03/14 11:12:34;;;;;;;4.60;1.60;;;;;;;11.10;47.87;99019.16;2190059;79;32651;-70
2021/03/14 11:15:36;;;;;;;3.00;2.08;;;;;;;11.01;48.31;99030.55;2192840;79;33058;-66
2021/03/14 11:18:38;;;;;;;4.10;2.62;;;;;;;11.03;48.27;99033.11;2193106;79;28917;-69
2021/03/14 11:21:40;;;;;;;2.92;2.62;;;;;;;11.04;48.03;99049.56;2202503;79;28266;-69
2021/03/14 11:24:44;;;;;;;3.52;3.00;;;;;;;11.13;48.60;99050.73;2198477;79;28677;-65
2021/03/14 11:27:48;;;;;;;3.00;2.55;;;;;;;11.23;48.27;99055.31;2189675;79;32048;-71
2021/03/14 11:30:50;;;;;;;2.25;2.05;;;;;;;11.21;47.69;99055.91;2179323;80;33887;-69
2021/03/14 11:33:52;;;;;;;2.65;2.02;;;;;;;11.14;48.25;99060.48;2191721;79;29817;-66
2021/03/14 11:36:54;;;;;;;4.83;2.47;;;;;;;11.00;48.01;99075.73;2194948;80;27885;-66
2021/03/14 11:39:57;;;;;;;4.97;3.20;;;;;;;10.77;47.61;99071.52;2157567;81;28834;-65
2021/03/14 11:42:59;;;;;;;7.45;3.25;;;;;;;10.57;48.24;99074.25;2160218;81;31273;-67
2021/03/14 11:46:01;;;;;;;3.20;2.65;;;;;;;10.53;48.62;99072.75;2160979;81;34014;-64
2021/03/14 11:49:03;;;;;;;3.02;2.25;;;;;;;10.52;48.70;99075.55;2159263;81;28875;-66
2021/03/14 11:52:06;;;;;;;3.60;1.77;;;;;;;10.43;48.44;99086.41;2158716;81;28007;-69
2021/03/14 11:55:10;;;;;;;4.28;2.30;;;;;;;10.38;48.61;99090.75;2157321;81;28824;-64
2021/03/14 11:58:12;;;;;;;1.95;1.70;;;;;;;10.40;49.00;99095.52;2161559;81;31135;-66
2021/03/14 12:01:14;;;;;;;2.30;2.10;;;;;;;10.41;48.69;99098.58;2158166;81;33150;-59
2021/03/14 12:04:21;;;;;;;2.95;1.77;;;;;;;10.33;48.85;99095.05;2159446;81;29817;-59
2021/03/14 12:07:25;;;;;;;9.60;6.90;;;;;;;10.25;48.81;99090.69;2157809;81;27696;-59
2021/03/14 12:10:27;;;;;;;14.85;13.30;;;;;;;10.13;48.96;99104.91;2150042;82;29918;-60
2021/03/14 12:13:29;;;;;;;53.20;18.17;;;;;;;10.01;49.21;99103.41;2143042;82;32144;-60
2021/03/14 12:16:32;;;;;;;17.20;6.25;;;;;;;9.91;49.53;99110.34;2144377;82;33009;-58
2021/03/14 12:19:34;;;;;;;111.62;47.25;;;;;;;9.84;49.45;99123.27;2142415;82;30244;-59
2021/03/14 12:22:38;;;;;;;22.02;10.08;;;;;;;9.67;49.12;99117.70;2144157;82;28417;-59
2021/03/14 12:25:40;;;;;;;24.95;9.40;;;;;;;9.53;49.59;99123.05;2143950;82;31154;-59
2021/03/14 12:28:43;;;;;;;54.80;18.65;;;;;;;9.41;49.88;99120.22;2138693;82;32545;-59
2021/03/14 12:31:45;;;;;;;41.33;16.75;;;;;;;9.31;50.25;99135.14;2143129;82;33203;-70
2021/03/14 12:34:48;;;;;;;58.92;20.75;;;;;;;9.24;50.39;99144.48;2143055;82;28875;-68
2021/03/14 12:37:50;;;;;;;62.27;22.32;;;;;;;9.24;50.81;99149.83;2144192;82;27758;-66
2021/03/14 12:40:53;;;;;;;64.03;25.02;;;;;;;9.25;51.14;99144.87;2141138;82;30052;-63
2021/03/14 12:43:56;;;;;;;32.93;12.53;;;;;;;9.40;51.26;99145.23;2143007;82;33463;-79
2021/03/14 12:46:58;;;;;;;16.90;7.53;;;;;;;9.60;51.31;99149.78;2143556;82;33185;-77
2021/03/14 12:50:01;;;;;;;15.72;6.58;;;;;;;9.75;50.86;99146.61;2138531;82;29421;-69
2021/03/14 12:53:03;;;;;;;11.70;6.03;;;;;;;9.69;50.57;99153.19;2144011;82;28360;-69
2021/03/14 12:56:06;;;;;;;16.48;5.97;;;;;;;9.66;50.78;99152.08;2142184;82;29251;-66
2021/03/14 12:59:14;;;;;;;7.62;3.08;;;;;;;9.64;50.61;99164.69;2141271;82;30998;-73
2021/03/14 13:02:25;;;;;;;15.70;4.95;;;;;;;9.64;50.66;99167.82;2141236;83;33979;-67
2021/03/14 13:05:34;;;;;;;15.48;5.83;;;;;;;9.64;50.59;99166.48;2141260;82;29834;-66
2021/03/14 13:08:39;;;;;;;6.58;3.47;;;;;;;9.66;50.60;99157.42;2141538;83;27963;-73
2021/03/14 13:11:46;;;;;;;4.65;3.58;;;;;;;9.78;51.08;99153.56;2152455;81;29701;-67
2021/03/14 13:14:58;;;;;;;10.85;5.90;;;;;;;9.87;50.97;99156.97;2158436;81;32041;-76
2021/03/14 13:18:08;;;;;;;20.57;8.98;;;;;;;9.94;50.88;99142.25;2158467;81;33129;-66
2021/03/14 13:21:13;;;;;;;13.48;5.53;;;;;;;9.95;50.91;99153.33;2158241;82;29752;-76
2021/03/14 13:24:23;;;;;;;6.87;4.05;;;;;;;9.94;50.92;99160.09;2159763;81;27938;-67
2021/03/14 13:27:29;;;;;;;17.12;6.95;;;;;;;9.87;50.91;99174.36;2158293;82;28894;-71
2021/03/14 13:30:35;;;;;;;5.65;3.25;;;;;;;9.80;51.01;99179.74;2158201;81;32062;-67
2021/03/14 13:33:44;;;;;;;26.25;12.23;;;;;;;9.61;50.64;99187.61;2158380;82;34062;-66
2021/03/14 13:36:49;;;;;;;10.90;5.37;;;;;;;9.41;50.72;99198.23;2158357;81;29802;-66
2021/03/14 13:39:57;;;;;;;5.00;2.70;;;;;;;9.23;50.74;99205.10;2158397;82;27859;-65
2021/03/14 13:43:04;;;;;;;10.48;5.55;;;;;;;9.12;50.79;99203.09;2158417;82;29816;-65
2021/03/14 13:46:09;;;;;;;8.88;5.58;;;;;;;9.00;50.83;99195.83;2158564;82;32049;-67
2021/03/14 13:49:17;;;;;;;6.10;3.72;;;;;;;8.99;51.16;99199.45;2158750;81;33987;-66
2021/03/14 13:52:24;;;;;;;5.62;3.05;;;;;;;9.06;51.36;99213.30;2157832;82;29751;-66
2021/03/14 13:55:30;;;;;;;4.72;2.67;;;;;;;9.15;51.47;99219.89;2159084;81;27913;-66
2021/03/14 13:58:37;;;;;;;3.67;2.33;;;;;;;9.26;51.37;99226.76;2158269;81;29706;-68
2021/03/14 14:01:42;;;;;;;4.58;3.12;;;;;;;9.25;51.06;99220.57;2158558;81;32041;-66
2021/03/14 14:04:51;;;;;;;;;;;;;;;9.18;51.30;99221.05;2161069;82;35036;-66
2021/03/14 14:07:59;;;;;;;3.83;2.30;;;;;;;9.20;51.59;99240.48;2158390;82;29166;-65
2021/03/14 14:11:07;;;;;;;4.42;2.25;;;;;;;9.17;51.63;99239.36;2178048;81;27880;-65
2021/03/14 14:14:20;;;;;;;4.58;2.67;;;;;;;9.12;51.60;99243.62;2179313;81;27929;-65
2021/03/14 14:17:34;;;;;;;7.83;4.85;;;;;;;9.05;51.71;99250.31;2180071;81;32072;-63
2021/03/14 14:20:42;;;;;;;7.33;4.28;;;;;;;8.95;51.80;99250.00;2179058;81;33981;-65
2021/03/14 14:23:46;;;;;;;6.95;4.53;;;;;;;8.88;51.97;99260.20;2179821;81;30021;-63
2021/03/14 14:26:59;;;;;;;4.10;3.20;;;;;;;8.81;52.19;99254.82;2180813;80;27919;-64
2021/03/14 14:30:10;;;;;;;8.38;4.10;;;;;;;8.74;52.38;99264.16;2180856;81;28834;-68
2021/03/14 14:33:15;;;;;;;6.50;3.47;;;;;;;8.59;52.54;99265.45;2180755;81;31137;-71
2021/03/14 14:36:20;;;;;;;;;;;;;;;8.47;52.71;99256.77;2183505;81;35039;-61
2021/03/14 14:42:54;;;;;;;5.87;3.55;;;;;;;8.37;53.19;99259.09;2282248;77;31988;-64
2021/03/14 14:46:00;;;;;;;9.95;4.80;;;;;;;8.23;53.35;99259.91;2255272;78;27880;-63
2021/03/14 14:49:08;;;;;;;5.70;3.20;;;;;;;8.15;53.50;99263.47;2254990;78;29697;-63